createdAt,value
2023-03-21T00:00:43.899Z,9.99
2023-03-21T00:03:10.358Z,10.00
2023-03-21T00:05:37.072Z,10.00
2023-03-21T00:08:03.545Z,10.00
2023-03-21T00:10:40.553Z,9.82
2023-03-21T00:13:13.435Z,9.90
2023-03-21T00:16:01.909Z,10.01
2023-03-21T00:18:30.689Z,9.94
2023-03-21T00:21:22.122Z,9.99
2023-03-21T00:23:44.837Z,10.02
2023-03-21T00:26:11.388Z,10.07
2023-03-21T00:28:37.706Z,10.00
2023-03-21T00:31:04.133Z,9.99
2023-03-21T00:33:30.519Z,9.97
2023-03-21T00:36:02.488Z,9.82
2023-03-21T00:38:31.400Z,9.79
2023-03-21T00:41:01.937Z,9.86
2023-03-21T00:43:31.597Z,9.81
2023-03-21T00:45:58.468Z,9.86
2023-03-21T00:48:24.838Z,9.98
2023-03-21T00:50:52.519Z,9.92
2023-03-21T00:53:18.841Z,10.01
2023-03-21T00:55:45.348Z,10.01
2023-03-21T00:58:11.674Z,10.04
2023-03-21T01:00:38.110Z,10.01
2023-03-21T01:03:21.395Z,9.92
2023-03-21T01:06:06.064Z,9.63
2023-03-21T01:08:44.654Z,9.34
2023-03-21T01:11:17.290Z,9.38
2023-03-21T01:13:52.820Z,9.37
2023-03-21T01:16:20.945Z,9.23
2023-03-21T01:18:47.266Z,9.07
2023-03-21T01:21:13.588Z,9.08
2023-03-21T01:23:39.906Z,9.25
2023-03-21T01:26:06.310Z,9.36
2023-03-21T01:28:32.737Z,9.36
2023-03-21T01:30:59.049Z,9.36
2023-03-21T01:33:25.467Z,9.22
2023-03-21T01:36:00.348Z,9.15
2023-03-21T01:38:32.797Z,9.10
2023-03-21T01:41:00.474Z,9.20
2023-03-21T01:43:26.840Z,9.36
2023-03-21T01:45:53.183Z,9.37
2023-03-21T01:48:19.572Z,9.39
2023-03-21T01:50:46.259Z,9.34
2023-03-21T01:53:13.020Z,9.38
2023-03-21T01:55:39.696Z,9.45
2023-03-21T01:58:07.458Z,9.48
2023-03-21T02:00:33.981Z,9.43
2023-03-21T02:03:11.730Z,9.48
2023-03-21T02:05:40.370Z,9.34
2023-03-21T02:08:06.686Z,9.34
2023-03-21T02:10:33.011Z,9.31
2023-03-21T02:12:59.360Z,9.30
2023-03-21T02:15:26.550Z,9.37
2023-03-21T02:17:52.849Z,9.36
2023-03-21T02:20:22.222Z,9.39
2023-03-21T02:22:48.760Z,9.34
2023-03-21T02:25:21.895Z,9.29
2023-03-21T02:27:48.863Z,9.35
2023-03-21T02:30:26.438Z,9.31
2023-03-21T02:32:54.846Z,9.21
2023-03-21T02:35:21.244Z,9.19
2023-03-21T02:37:58.280Z,9.21
2023-03-21T02:40:27.176Z,9.21
2023-03-21T02:43:00.010Z,9.17
2023-03-21T02:45:27.386Z,9.04
2023-03-21T02:47:53.801Z,9.04
2023-03-21T02:50:20.150Z,9.06
2023-03-21T02:52:46.461Z,8.95
2023-03-21T02:55:14.418Z,8.57
2023-03-21T02:57:43.397Z,8.63
2023-03-21T03:00:16.481Z,8.71
2023-03-21T03:02:43.764Z,8.63
2023-03-21T03:05:20.483Z,8.59
2023-03-21T03:07:47.425Z,8.57
2023-03-21T03:10:13.817Z,8.39
2023-03-21T03:12:40.139Z,8.31
2023-03-21T03:15:06.496Z,8.31
2023-03-21T03:17:32.844Z,8.27
2023-03-21T03:20:04.280Z,8.06
2023-03-21T03:22:33.607Z,8.25
2023-03-21T03:25:04.797Z,8.30
2023-03-21T03:27:39.060Z,8.35
2023-03-21T03:30:05.396Z,8.37
2023-03-21T03:32:31.742Z,8.44
2023-03-21T03:34:58.033Z,8.45
2023-03-21T03:37:26.412Z,8.45
2023-03-21T03:39:53.007Z,8.37
2023-03-21T03:42:27.987Z,8.39
2023-03-21T03:44:55.339Z,8.51
2023-03-21T03:47:32.311Z,8.50
2023-03-21T03:50:01.196Z,8.28
2023-03-21T03:52:28.030Z,8.44
2023-03-21T03:54:54.348Z,8.44
2023-03-21T03:57:20.740Z,8.51
2023-03-21T03:59:47.069Z,8.61
2023-03-21T04:02:13.527Z,8.52
2023-03-21T04:04:39.928Z,8.51
2023-03-21T04:07:06.493Z,8.52
2023-03-21T04:09:43.662Z,8.50
2023-03-21T04:12:11.062Z,8.39
2023-03-21T04:14:44.473Z,8.45
2023-03-21T04:17:12.308Z,8.42
2023-03-21T04:19:38.633Z,8.49
2023-03-21T04:22:04.941Z,8.51
2023-03-21T04:24:33.969Z,8.54
2023-03-21T04:27:00.378Z,8.46
2023-03-21T04:29:29.961Z,8.55
2023-03-21T04:31:56.446Z,8.57
2023-03-21T04:34:24.178Z,8.57
2023-03-21T04:36:50.944Z,8.52
2023-03-21T04:39:17.282Z,8.53
2023-03-21T04:41:43.700Z,8.50
2023-03-21T04:44:10.134Z,8.57
2023-03-21T04:46:36.528Z,8.60
2023-03-21T04:49:02.961Z,8.55
2023-03-21T04:51:29.453Z,8.45
2023-03-21T04:53:57.678Z,8.42
2023-03-21T04:56:26.213Z,8.46
2023-03-21T04:58:52.529Z,8.43
2023-03-21T05:01:20.894Z,8.49
2023-03-21T05:03:47.373Z,8.47
2023-03-21T05:06:13.745Z,8.53
2023-03-21T05:08:40.065Z,8.45
2023-03-21T05:11:06.473Z,8.53
2023-03-21T05:13:32.852Z,8.47
2023-03-21T05:15:59.180Z,8.51
2023-03-21T05:18:26.262Z,8.49
2023-03-21T05:20:55.658Z,8.50
2023-03-21T05:23:21.985Z,8.49
2023-03-21T05:25:48.302Z,8.48
2023-03-21T05:28:18.257Z,8.47
2023-03-21T05:30:45.094Z,8.56
2023-03-21T05:33:11.446Z,8.50
2023-03-21T05:35:38.052Z,8.51
2023-03-21T05:38:04.512Z,8.45
2023-03-21T05:40:30.820Z,8.28
2023-03-21T05:42:57.128Z,8.41
2023-03-21T05:45:23.463Z,8.53
2023-03-21T05:47:49.885Z,8.66
2023-03-21T05:50:16.261Z,8.72
2023-03-21T05:52:42.646Z,8.78
2023-03-21T05:55:08.956Z,8.28
2023-03-21T05:57:39.298Z,8.54
2023-03-21T06:00:05.612Z,8.36
2023-03-21T06:02:32.019Z,8.35
2023-03-21T06:04:58.364Z,8.54
2023-03-21T06:07:24.677Z,8.29
2023-03-21T06:09:51.072Z,8.51
2023-03-21T06:12:17.402Z,8.44
2023-03-21T06:14:43.712Z,8.61
2023-03-21T06:17:10.064Z,8.40
2023-03-21T06:19:36.394Z,8.60
2023-03-21T06:22:02.781Z,8.47
2023-03-21T06:24:29.115Z,8.70
2023-03-21T06:26:56.204Z,8.89
2023-03-21T06:29:22.599Z,8.81
2023-03-21T06:31:48.961Z,8.98
2023-03-21T06:34:15.502Z,8.70
2023-03-21T06:36:44.955Z,8.40
2023-03-21T06:39:11.326Z,8.56
2023-03-21T06:41:37.641Z,8.44
2023-03-21T06:44:03.976Z,8.34
2023-03-21T06:46:30.359Z,8.41
2023-03-21T06:48:56.724Z,8.35
2023-03-21T06:51:23.041Z,8.38
2023-03-21T06:53:49.381Z,8.46
2023-03-21T06:56:15.721Z,8.45
2023-03-21T06:58:42.051Z,8.52
2023-03-21T07:01:08.477Z,8.40
2023-03-21T07:03:35.011Z,8.69
2023-03-21T07:06:01.479Z,8.68
2023-03-21T07:08:27.797Z,8.50
2023-03-21T07:10:54.288Z,8.60
2023-03-21T07:13:20.633Z,8.83
2023-03-21T07:15:46.987Z,8.87
2023-03-21T07:18:13.318Z,8.84
2023-03-21T07:20:39.678Z,9.08
2023-03-21T07:23:06.046Z,9.28
2023-03-21T07:25:32.449Z,9.08
2023-03-21T07:27:58.786Z,9.11
2023-03-21T07:30:25.433Z,9.61
2023-03-21T07:32:53.519Z,9.33
2023-03-21T07:35:19.870Z,8.85
2023-03-21T07:37:46.294Z,8.96
2023-03-21T07:40:13.385Z,9.11
2023-03-21T07:42:39.778Z,9.29
2023-03-21T07:45:06.170Z,9.19
2023-03-21T07:47:32.726Z,9.04
2023-03-21T07:49:59.040Z,9.10
2023-03-21T07:52:25.361Z,8.96
2023-03-21T07:54:51.717Z,9.36
2023-03-21T07:57:18.109Z,9.20
2023-03-21T07:59:44.414Z,9.29
2023-03-21T08:02:10.849Z,9.31
2023-03-21T08:04:37.263Z,9.40
2023-03-21T08:07:03.628Z,9.28
2023-03-21T08:09:31.152Z,9.72
2023-03-21T08:11:57.623Z,9.61
2023-03-21T08:14:24.042Z,9.80
2023-03-21T08:16:50.539Z,10.11
2023-03-21T08:19:18.856Z,10.03
2023-03-21T08:21:45.267Z,10.22
2023-03-21T08:24:11.603Z,10.34
2023-03-21T08:26:38.341Z,10.71
2023-03-21T08:29:04.726Z,10.79
2023-03-21T08:31:31.063Z,10.59
2023-03-21T08:33:57.378Z,10.65
2023-03-21T08:36:23.761Z,10.86
2023-03-21T08:38:54.258Z,10.64
2023-03-21T08:41:22.177Z,10.56
2023-03-21T08:43:48.525Z,10.47
2023-03-21T08:46:14.891Z,10.34
2023-03-21T08:48:41.356Z,10.57
2023-03-21T08:51:07.716Z,10.52
2023-03-21T08:53:34.076Z,10.90
2023-03-21T08:56:00.457Z,10.69
2023-03-21T08:58:26.786Z,11.06
2023-03-21T09:00:53.284Z,11.33
2023-03-21T09:03:20.289Z,11.11
2023-03-21T09:05:46.727Z,11.36
2023-03-21T09:08:16.266Z,11.60
2023-03-21T09:10:42.572Z,11.13
2023-03-21T09:13:09.091Z,10.86
2023-03-21T09:15:35.611Z,11.44
2023-03-21T09:18:13.473Z,11.76
2023-03-21T09:20:40.468Z,11.48
2023-03-21T09:23:06.998Z,11.13
2023-03-21T09:25:33.569Z,11.49
2023-03-21T09:28:00.295Z,12.24
2023-03-21T09:30:27.285Z,12.02
2023-03-21T09:32:55.930Z,11.88
2023-03-21T09:35:22.816Z,12.00
2023-03-21T09:37:50.076Z,12.50
2023-03-21T09:40:16.499Z,12.89
2023-03-21T09:42:43.334Z,12.05
2023-03-21T09:45:10.140Z,12.50
2023-03-21T09:47:37.822Z,12.19
2023-03-21T09:50:14.017Z,11.94
2023-03-21T09:52:41.660Z,12.51
2023-03-21T09:55:19.007Z,11.94
2023-03-21T09:57:45.679Z,11.73
2023-03-21T10:00:16.613Z,11.89
2023-03-21T10:02:47.216Z,11.91
2023-03-21T10:05:14.339Z,12.28
2023-03-21T10:07:41.865Z,12.50
2023-03-21T10:10:08.217Z,12.98
2023-03-21T10:12:34.695Z,12.92
2023-03-21T10:15:01.061Z,13.24
2023-03-21T10:17:27.456Z,13.10
2023-03-21T10:19:54.617Z,12.53
2023-03-21T10:22:21.031Z,12.42
2023-03-21T10:24:47.368Z,12.21
2023-03-21T10:27:14.788Z,12.09
2023-03-21T10:29:42.383Z,11.85
2023-03-21T10:32:08.757Z,12.14
2023-03-21T10:34:35.371Z,12.77
2023-03-21T10:37:01.911Z,12.74
2023-03-21T10:39:28.256Z,13.01
2023-03-21T10:41:54.587Z,13.24
2023-03-21T10:44:21.042Z,12.81
2023-03-21T10:46:47.526Z,12.94
2023-03-21T10:49:13.978Z,12.78
2023-03-21T10:51:40.323Z,13.57
2023-03-21T10:54:06.754Z,13.66
2023-03-21T10:56:33.110Z,13.33
2023-03-21T10:58:59.548Z,13.09
2023-03-21T11:01:26.185Z,12.81
2023-03-21T11:03:54.043Z,13.20
2023-03-21T11:06:20.648Z,13.67
2023-03-21T11:08:46.959Z,14.26
2023-03-21T11:11:13.388Z,14.52
2023-03-21T11:13:39.781Z,14.38
2023-03-21T11:16:06.286Z,13.86
2023-03-21T11:18:35.685Z,13.84
2023-03-21T11:21:02.033Z,13.64
2023-03-21T11:23:28.509Z,13.71
2023-03-21T11:25:54.849Z,13.87
2023-03-21T11:28:21.185Z,14.11
2023-03-21T11:30:47.549Z,14.10
2023-03-21T11:33:13.872Z,14.43
2023-03-21T11:35:40.636Z,14.79
2023-03-21T11:38:07.514Z,14.49
2023-03-21T11:40:33.826Z,14.64
2023-03-21T11:43:00.647Z,14.61
2023-03-21T11:45:27.000Z,14.49
2023-03-21T11:47:53.385Z,14.89
2023-03-21T11:50:19.824Z,14.87
2023-03-21T11:52:46.341Z,14.51
2023-03-21T11:55:12.707Z,14.50
2023-03-21T11:57:39.033Z,14.62
2023-03-21T12:00:10.775Z,14.08
2023-03-21T12:02:37.574Z,14.14
2023-03-21T12:05:04.138Z,14.13
2023-03-21T12:07:30.506Z,14.05
2023-03-21T12:09:56.856Z,14.27
2023-03-21T12:12:33.015Z,14.51
2023-03-21T12:15:02.796Z,14.87
2023-03-21T12:17:29.104Z,15.06
2023-03-21T12:19:55.576Z,14.22
2023-03-21T12:22:21.877Z,14.29
2023-03-21T12:24:48.185Z,14.75
2023-03-21T12:27:14.573Z,15.08
2023-03-21T12:29:40.914Z,15.13
2023-03-21T12:32:07.256Z,15.01
2023-03-21T12:34:33.569Z,14.93
2023-03-21T12:37:00.401Z,14.75
2023-03-21T12:39:26.794Z,14.62
2023-03-21T12:41:53.122Z,14.83
2023-03-21T12:44:19.457Z,14.97
2023-03-21T12:46:46.182Z,14.62
2023-03-21T12:49:12.577Z,14.91
2023-03-21T12:51:38.984Z,14.99
2023-03-21T12:54:05.561Z,15.49
2023-03-21T12:56:32.143Z,15.84
2023-03-21T12:58:58.490Z,15.96
2023-03-21T13:01:24.887Z,15.67
2023-03-21T13:03:51.596Z,15.49
2023-03-21T13:06:18.490Z,15.54
2023-03-21T13:08:45.017Z,14.30
2023-03-21T13:11:11.323Z,14.51
2023-03-21T13:13:37.686Z,14.30
2023-03-21T13:16:04.079Z,14.29
2023-03-21T13:18:30.483Z,14.38
2023-03-21T13:20:56.822Z,14.55
2023-03-21T13:23:23.157Z,14.33
2023-03-21T13:25:49.481Z,14.66
2023-03-21T13:28:15.801Z,14.80
2023-03-21T13:30:42.531Z,15.26
2023-03-21T13:33:09.027Z,14.96
2023-03-21T13:35:37.768Z,15.27
2023-03-21T13:38:04.332Z,15.60
2023-03-21T13:40:30.677Z,15.31
2023-03-21T13:42:59.283Z,15.72
2023-03-21T13:45:25.717Z,15.27
2023-03-21T13:47:52.628Z,15.45
2023-03-21T13:50:19.074Z,15.12
2023-03-21T13:52:45.662Z,15.34
2023-03-21T13:55:12.016Z,15.57
2023-03-21T13:57:38.807Z,15.68
2023-03-21T14:00:06.244Z,15.74
2023-03-21T14:02:32.552Z,15.59
2023-03-21T14:05:06.961Z,15.75
2023-03-21T14:07:33.643Z,15.76
2023-03-21T14:10:00.193Z,16.11
2023-03-21T14:12:27.114Z,16.27
2023-03-21T14:14:54.170Z,16.46
2023-03-21T14:17:20.655Z,15.96
2023-03-21T14:19:46.970Z,15.58
2023-03-21T14:22:13.293Z,15.29
2023-03-21T14:24:41.368Z,15.09
2023-03-21T14:27:07.697Z,15.65
2023-03-21T14:29:34.132Z,15.99
2023-03-21T14:32:00.441Z,15.46
2023-03-21T14:34:27.262Z,15.28
2023-03-21T14:37:00.919Z,15.64
2023-03-21T14:39:27.262Z,15.42
2023-03-21T14:41:53.656Z,15.52
2023-03-21T14:44:26.375Z,15.29
2023-03-21T14:46:52.721Z,15.06
2023-03-21T14:49:19.014Z,15.05
2023-03-21T14:51:47.005Z,15.16
2023-03-21T14:54:13.315Z,15.10
2023-03-21T14:56:39.705Z,15.03
2023-03-21T14:59:06.009Z,15.08
2023-03-21T15:01:33.294Z,15.11
2023-03-21T15:04:00.578Z,14.93
2023-03-21T15:06:27.537Z,14.87
2023-03-21T15:08:53.844Z,15.23
2023-03-21T15:11:20.160Z,15.14
2023-03-21T15:13:46.525Z,15.16
2023-03-21T15:16:15.000Z,15.30
2023-03-21T15:18:41.574Z,14.95
2023-03-21T15:21:07.888Z,15.02
2023-03-21T15:23:34.228Z,14.97
2023-03-21T15:26:00.640Z,14.80
2023-03-21T15:28:26.982Z,14.92
2023-03-21T15:30:53.638Z,14.87
2023-03-21T15:33:19.998Z,15.08
2023-03-21T15:35:46.966Z,15.20
2023-03-21T15:38:13.338Z,15.25
2023-03-21T15:40:39.961Z,15.41
2023-03-21T15:43:07.457Z,14.98
2023-03-21T15:45:33.787Z,14.97
2023-03-21T15:48:00.695Z,14.95
2023-03-21T15:50:27.384Z,15.04
2023-03-21T15:52:53.795Z,14.80
2023-03-21T15:55:22.364Z,14.74
2023-03-21T15:57:50.140Z,14.71
2023-03-21T16:00:18.435Z,14.66
2023-03-21T16:02:44.789Z,14.91
2023-03-21T16:05:13.317Z,14.88
2023-03-21T16:07:42.737Z,14.79
2023-03-21T16:10:09.073Z,14.83
2023-03-21T16:12:35.615Z,14.89
2023-03-21T16:15:02.026Z,14.86
2023-03-21T16:17:28.475Z,14.84
2023-03-21T16:19:55.376Z,15.00
2023-03-21T16:22:22.381Z,15.12
2023-03-21T16:24:48.759Z,15.34
2023-03-21T16:27:15.108Z,15.55
2023-03-21T16:29:41.444Z,15.30
2023-03-21T16:32:07.892Z,15.25
2023-03-21T16:34:34.251Z,15.40
2023-03-21T16:37:00.584Z,15.76
2023-03-21T16:39:27.100Z,15.49
2023-03-21T16:41:53.405Z,15.50
2023-03-21T16:44:19.709Z,15.06
2023-03-21T16:46:47.467Z,15.59
2023-03-21T16:49:15.087Z,15.57
2023-03-21T16:51:41.384Z,15.70
2023-03-21T16:54:07.703Z,15.57
2023-03-21T16:56:34.074Z,15.45
2023-03-21T16:59:00.369Z,15.44
2023-03-21T17:01:27.586Z,15.10
2023-03-21T17:03:54.073Z,15.05
2023-03-21T17:06:20.461Z,14.81
2023-03-21T17:08:46.769Z,14.86
2023-03-21T17:11:13.135Z,14.86
2023-03-21T17:13:39.499Z,15.08
2023-03-21T17:16:06.681Z,14.99
2023-03-21T17:18:32.982Z,14.90
2023-03-21T17:20:59.299Z,14.81
2023-03-21T17:23:25.644Z,14.93
2023-03-21T17:25:52.122Z,15.05
2023-03-21T17:28:18.480Z,15.05
2023-03-21T17:30:44.878Z,15.11
2023-03-21T17:33:11.260Z,14.99
2023-03-21T17:35:37.623Z,14.82
2023-03-21T17:38:04.116Z,14.84
2023-03-21T17:40:30.443Z,14.93
2023-03-21T17:42:56.777Z,14.94
2023-03-21T17:45:23.150Z,14.79
2023-03-21T17:47:49.489Z,14.82
2023-03-21T17:50:16.470Z,14.78
2023-03-21T17:52:42.785Z,14.75
2023-03-21T17:55:09.133Z,14.59
2023-03-21T17:57:36.487Z,14.58
2023-03-21T18:00:05.251Z,14.59
2023-03-21T18:02:31.689Z,14.50
2023-03-21T18:04:58.069Z,14.42
2023-03-21T18:07:54.499Z,14.31
2023-03-21T18:10:10.794Z,14.41
2023-03-21T18:12:37.416Z,14.54
2023-03-21T18:15:04.100Z,14.44
2023-03-21T18:17:30.531Z,14.45
2023-03-21T18:19:57.495Z,14.47
2023-03-21T18:22:24.531Z,14.40
2023-03-21T18:24:51.154Z,14.40
2023-03-21T18:27:18.301Z,14.32
2023-03-21T18:30:22.141Z,14.15
2023-03-21T18:32:31.151Z,14.27
2023-03-21T18:35:00.579Z,14.34
2023-03-21T18:37:27.619Z,14.18
2023-03-21T18:39:53.943Z,14.09
2023-03-21T18:42:23.212Z,14.16
2023-03-21T18:44:50.194Z,14.13
2023-03-21T18:47:16.875Z,14.10
2023-03-21T18:52:29.678Z,13.96
2023-03-21T18:54:56.043Z,14.01
2023-03-21T18:57:39.093Z,13.96
2023-03-21T19:00:13.070Z,13.98
2023-03-21T19:02:45.521Z,13.90
2023-03-21T19:05:13.182Z,13.91
2023-03-21T19:07:39.714Z,13.90
2023-03-21T19:10:17.545Z,13.74
2023-03-21T19:12:44.740Z,13.65
2023-03-21T19:15:11.562Z,13.50
2023-03-21T19:18:24.989Z,13.42
2023-03-21T19:20:24.593Z,13.28
2023-03-21T19:22:51.084Z,13.23
2023-03-21T19:25:17.431Z,13.21
2023-03-21T19:27:43.760Z,13.12
2023-03-21T19:30:14.814Z,12.92
2023-03-21T19:32:42.160Z,12.88
2023-03-21T19:35:08.524Z,13.00
2023-03-21T19:37:36.415Z,12.96
2023-03-21T19:40:03.693Z,12.87
2023-03-21T19:42:30.876Z,12.84
2023-03-21T19:44:57.333Z,12.87
2023-03-21T19:47:23.680Z,12.92
2023-03-21T19:52:40.519Z,12.83
2023-03-21T19:55:06.987Z,12.66
2023-03-21T19:57:34.809Z,12.77
2023-03-21T20:00:01.483Z,12.80
2023-03-21T20:02:37.340Z,12.77
2023-03-21T20:05:03.864Z,12.72
2023-03-21T20:07:32.751Z,12.74
2023-03-21T20:09:59.665Z,12.74
2023-03-21T20:12:26.073Z,12.60
2023-03-21T20:15:01.015Z,12.65
2023-03-21T20:17:35.895Z,12.72
2023-03-21T20:20:14.033Z,12.65
2023-03-21T20:25:28.489Z,12.35
2023-03-21T20:28:12.712Z,12.45
2023-03-21T20:30:41.563Z,12.46
2023-03-21T20:33:08.243Z,12.46
2023-03-21T20:36:22.972Z,12.30
2023-03-21T20:38:21.113Z,12.27
2023-03-21T20:40:48.138Z,12.37
2023-03-21T20:43:52.148Z,12.41
2023-03-21T20:46:01.126Z,12.41
2023-03-21T20:48:29.772Z,12.40
2023-03-21T20:51:01.200Z,12.39
2023-03-21T20:53:28.594Z,12.41
2023-03-21T20:55:54.955Z,12.09
2023-03-21T20:58:45.158Z,12.12
2023-03-21T21:01:14.387Z,12.19
2023-03-21T21:03:41.269Z,12.19
2023-03-21T21:06:07.821Z,12.13
2023-03-21T21:08:35.306Z,12.01
2023-03-21T21:11:50.161Z,12.10
2023-03-21T21:13:48.228Z,12.18
2023-03-21T21:16:14.639Z,12.34
2023-03-21T21:18:40.996Z,12.33
2023-03-21T21:21:07.338Z,12.28
2023-03-21T21:23:33.732Z,12.28
2023-03-21T21:26:01.274Z,12.15
2023-03-21T21:28:28.905Z,12.21
2023-03-21T21:31:01.303Z,12.26
2023-03-21T21:33:30.715Z,12.20
2023-03-21T21:35:57.198Z,12.15
2023-03-21T21:38:23.623Z,11.91
2023-03-21T21:40:49.944Z,12.11
2023-03-21T21:43:18.929Z,12.18
2023-03-21T21:45:45.247Z,12.23
2023-03-21T21:48:11.865Z,12.12
2023-03-21T21:50:38.448Z,12.05
2023-03-21T21:53:06.281Z,12.12
2023-03-21T21:55:32.714Z,12.18
2023-03-21T21:57:59.105Z,12.26
2023-03-21T22:00:25.496Z,12.23
2023-03-21T22:02:51.870Z,12.22
2023-03-21T22:05:19.086Z,12.23
2023-03-21T22:07:45.494Z,12.30
2023-03-21T22:10:12.194Z,12.28
2023-03-21T22:12:38.518Z,12.39
2023-03-21T22:15:04.902Z,12.43
2023-03-21T22:17:31.381Z,12.41
2023-03-21T22:20:05.482Z,12.45
2023-03-21T22:22:32.285Z,12.35
2023-03-21T22:24:58.620Z,12.30
2023-03-21T22:27:24.942Z,12.20
2023-03-21T22:29:51.361Z,12.20
2023-03-21T22:32:17.770Z,12.27
2023-03-21T22:34:44.090Z,12.22
2023-03-21T22:37:10.423Z,12.24
2023-03-21T22:39:37.581Z,12.25
2023-03-21T22:42:04.972Z,11.90
2023-03-21T22:44:34.919Z,11.98
2023-03-21T22:47:01.426Z,11.99
2023-03-21T22:49:27.981Z,11.94
2023-03-21T22:51:54.698Z,11.95
2023-03-21T22:54:21.055Z,11.95
2023-03-21T22:56:47.373Z,11.94
2023-03-21T22:59:13.692Z,11.95
2023-03-21T23:01:40.172Z,11.95
2023-03-21T23:04:06.596Z,11.90
2023-03-21T23:06:32.930Z,11.92
2023-03-21T23:08:59.241Z,11.91
2023-03-21T23:11:25.651Z,11.91
2023-03-21T23:14:06.766Z,12.01
2023-03-21T23:16:34.885Z,11.95
2023-03-21T23:19:02.297Z,11.80
2023-03-21T23:21:28.774Z,11.47
2023-03-21T23:23:55.101Z,11.63
2023-03-21T23:26:21.434Z,11.69
2023-03-21T23:28:48.260Z,11.65
2023-03-21T23:31:14.695Z,11.65
2023-03-21T23:33:41.062Z,11.68
2023-03-21T23:36:07.393Z,11.75
2023-03-21T23:38:33.711Z,11.82
2023-03-21T23:41:02.053Z,11.69
2023-03-21T23:43:29.870Z,11.61
2023-03-21T23:45:56.198Z,11.67
2023-03-21T23:48:22.670Z,11.61
2023-03-21T23:50:49.026Z,11.65
2023-03-21T23:53:15.664Z,11.72
2023-03-21T23:55:42.018Z,11.69
2023-03-21T23:58:09.197Z,11.59
